Historique des mesures à Cassis (13260), France
Quotidien Résumé Novembre 25, 2017 Unités:  Métrique    US   Métrique/US
« Précédent (Jour)
Suivant (Jour) »
Quotidien Hebdomadaire Mensuel Annuel Période au choix
  Maximum: Minimum: Moyenne:
Température: TemperatureC °C 8.9 °C 13.3 °C
Point de rosée: DewpointC °C -0.5 °C 8.5 °C
Humidité: Humidity % 52 % 70 %
Vitesse du vent: 0 km/h 0 km/h 13.2 km/h
Rafales: 0 km/h - -
Vent:- - SSE
Pression: PressurehPa hPa 1010.7 hPa -
Précipitations: 0.0 mm    
Historical Graphs
 
 
Mesures pour : Novembre 25, 2017
Heure Temperature Point de rosée Pression Vent Vitesse du vent Rafales Humidité Pluie (par heure) Conditions
TemperatureC °C DewpointC °C PressurehPa hPa Calm     Humidity % HourlyPrecipMM mm SoftwareType W/m2
00:10 14.9 °C 11.7 °C 1014.8 hPa North 3.4 km/h 5.1 km/h 81 % 0.0 mm open2300-1.11 W/m2
01:11 14.9 °C 12.1 °C 1013.4 hPa SE 14.5 km/h 14.5 km/h 83 % 0.0 mm open2300-1.11 W/m2
02:10 15.0 °C 12.1 °C 1013.8 hPa Calm     83 % 0.0 mm open2300-1.11 W/m2
03:11 15.0 °C 12.1 °C 1013.1 hPa Calm   3.4 km/h 83 % 0.0 mm open2300-1.11 W/m2
05:11 14.9 °C 12.2 °C 1011.1 hPa Calm     84 % 0.0 mm open2300-1.11 W/m2
06:10 14.8 °C 12.3 °C 1011.1 hPa Calm   6.4 km/h 85 % 0.0 mm open2300-1.11 W/m2
07:11 14.9 °C 12.4 °C 1010.7 hPa SSE 2.3 km/h 2.3 km/h 85 % 0.0 mm open2300-1.11 W/m2
08:10 14.9 °C 12.4 °C 1010.7 hPa Calm     85 % 0.0 mm open2300-1.11 W/m2
09:11 15.3 °C 12.8 °C 1011.4 hPa Calm     85 % 0.0 mm open2300-1.11 W/m2
10:10 15.0 °C 12.5 °C 1011.1 hPa NW 17.9 km/h 36 km/h 85 % 0.0 mm open2300-1.11 W/m2
11:11 14.6 °C 12.1 °C 1011.4 hPa NW 5.6 km/h 14 km/h 85 % 0.0 mm open2300-1.11 W/m2
12:10 14.5 °C 11.7 °C 1011.1 hPa Calm     83 % 0.0 mm open2300-1.11 W/m2
13:11 14.9 °C 11.1 °C 1011.1 hPa NNW 11.6 km/h 48.1 km/h 78 % 0.0 mm open2300-1.11 W/m2
14:10 14.8 °C 10.6 °C 1011.1 hPa NW 9.3 km/h 26.2 km/h 76 % 0.0 mm open2300-1.11 W/m2
15:11 15.4 °C 9.1 °C 1011.1 hPa East 10.3 km/h 45.4 km/h 66 % 0.0 mm open2300-1.11 W/m2
16:10 15.4 °C 8.6 °C 1011.7 hPa WNW 37.5 km/h 37.5 km/h 64 % 0.0 mm open2300-1.11 W/m2
17:11 14.1 °C 5.7 °C 1011.7 hPa NW 44.1 km/h 44.1 km/h 57 % 0.0 mm open2300-1.11 W/m2
18:10 13.1 °C 4.2 °C 1013.1 hPa North 23 km/h 23 km/h 55 % 0.0 mm open2300-1.11 W/m2
19:11 11.9 °C 3.1 °C 1013.4 hPa North 28.5 km/h 42.2 km/h 55 % 0.0 mm open2300-1.11 W/m2
20:10 11.3 °C 3.1 °C 1013.8 hPa NNE 20.9 km/h 86.3 km/h 57 % 0.0 mm open2300-1.11 W/m2
21:11 10.4 °C 1.2 °C 1014.1 hPa NNW 42.6 km/h 44.6 km/h 53 % 0.0 mm open2300-1.11 W/m2
22:10 9.6 °C 0.2 °C 1014.4 hPa North 11.6 km/h 58.6 km/h 52 % 0.0 mm open2300-1.11 W/m2
23:11 8.9 °C -0.5 °C 1014.8 hPa NNE 31.9 km/h 56.6 km/h 52 % 0.0 mm open2300-1.11 W/m2
Observations météo à CASSIS
WU-History script by Weather Underground - 1 mb